Time;durP1;ratioP1;P1;durP2;ratioP2;P2;SDS_P1;SDS_P2;PMS_P1;PMS_P2;Temp;Humidity;BMP_temperature;BMP_pressure;BME280_temperature;BME280_humidity;BME280_pressure;Samples;Min_cycle;Max_cycle;Signal;HPM_P1;HPM_P2
2022/08/02 00:02:23;;;;;;;7.78;2.10;;;;;;;19.12;100.00;98157.84;5112701;28;20140;-96
2022/08/02 00:04:50;;;;;;;6.13;2.15;;;;;;;19.06;100.00;98167.81;5109755;28;20027;-95
2022/08/02 00:07:16;;;;;;;5.43;1.65;;;;;;;19.28;100.00;98172.78;5102062;28;20753;-96
2022/08/02 00:09:43;;;;;;;6.60;1.88;;;;;;;18.71;100.00;98175.75;5101351;28;20039;-95
2022/08/02 00:12:09;;;;;;;6.78;2.00;;;;;;;18.81;100.00;98186.72;5116415;27;20031;-96
2022/08/02 00:14:36;;;;;;;7.47;1.88;;;;;;;18.96;100.00;98182.44;5094727;28;20024;-95
2022/08/02 00:17:02;;;;;;;6.68;1.95;;;;;;;18.82;100.00;98174.38;5094983;28;20119;-96
2022/08/02 00:19:28;;;;;;;5.65;1.65;;;;;;;19.05;100.00;98176.69;5092997;28;20032;-95
2022/08/02 00:21:53;;;;;;;7.97;2.05;;;;;;;19.22;100.00;98170.50;5090701;28;20019;-95
2022/08/02 00:24:19;;;;;;;7.05;1.80;;;;;;;19.10;100.00;98165.88;5097627;28;20024;-94
2022/08/02 00:26:45;;;;;;;6.97;1.67;;;;;;;19.15;100.00;98166.47;5095505;28;20058;-95
2022/08/02 00:29:10;;;;;;;7.13;1.70;;;;;;;18.96;100.00;98179.81;5101658;28;20523;-96
2022/08/02 00:31:36;;;;;;;5.75;1.73;;;;;;;18.73;100.00;98170.41;5101129;28;20112;-92
2022/08/02 00:34:01;;;;;;;5.53;1.58;;;;;;;19.05;100.00;98179.34;5097253;28;20031;-96
2022/08/02 00:36:27;;;;;;;6.18;1.60;;;;;;;19.09;100.00;98183.53;5100497;28;20031;-95
2022/08/02 00:38:52;;;;;;;6.22;1.73;;;;;;;18.64;100.00;98179.66;5100124;28;20024;-96
2022/08/02 00:41:20;;;;;;;6.03;1.52;;;;;;;18.64;100.00;98214.00;5100624;28;20736;-96
2022/08/02 00:43:48;;;;;;;6.28;1.40;;;;;;;18.72;100.00;98205.69;5097672;28;20035;-96
2022/08/02 00:46:15;;;;;;;5.93;1.60;;;;;;;18.71;100.00;98212.75;5097457;28;20027;-95
2022/08/02 00:48:43;;;;;;;5.28;1.55;;;;;;;18.66;100.00;98204.19;5097014;28;20032;-95
2022/08/02 00:51:10;;;;;;;5.22;1.30;;;;;;;18.37;100.00;98203.91;5097131;28;20058;-95
2022/08/02 00:53:37;;;;;;;6.10;1.42;;;;;;;18.60;100.00;98207.16;5094587;28;20040;-96
2022/08/02 00:56:02;;;;;;;7.45;1.40;;;;;;;18.55;100.00;98198.59;5100148;28;20177;-94
2022/08/02 00:58:28;;;;;;;5.25;1.50;;;;;;;18.62;100.00;98200.00;5096667;28;20086;-95
2022/08/02 01:00:56;;;;;;;7.63;1.60;;;;;;;18.69;100.00;98189.97;5081333;28;20119;-95
2022/08/02 01:03:22;;;;;;;5.60;1.40;;;;;;;18.90;100.00;98190.69;5094483;28;20046;-95
2022/08/02 01:05:48;;;;;;;5.47;1.77;;;;;;;18.59;100.00;98192.22;5080051;28;20031;-96
2022/08/02 01:08:13;;;;;;;6.47;1.58;;;;;;;18.57;100.00;98189.69;5079516;28;20031;-95
2022/08/02 01:10:39;;;;;;;10.27;1.75;;;;;;;18.70;100.00;98189.06;5081976;28;20031;-95
2022/08/02 01:13:04;;;;;;;9.32;1.80;;;;;;;18.80;100.00;98179.69;5079606;28;20126;-95
2022/08/02 01:15:32;;;;;;;8.48;1.52;;;;;;;18.71;100.00;98178.41;5075833;28;20481;-94
2022/08/02 01:18:08;;;;;;;6.57;1.48;;;;;;;18.69;100.00;98172.38;5094741;28;20433;-95
2022/08/02 01:20:55;;;;;;;5.55;1.50;;;;;;;18.77;100.00;98175.47;5075256;28;20150;-96
2022/08/02 01:23:40;;;;;;;8.25;1.70;;;;;;;18.94;100.00;98157.88;5078458;28;20390;-94
2022/08/02 01:26:51;;;;;;;7.95;1.73;;;;;;;18.96;100.00;98153.38;5077675;28;20084;-95
2022/08/02 01:29:29;;;;;;;7.00;1.67;;;;;;;18.75;100.00;98161.47;4982648;28;20049;-95
2022/08/02 01:32:24;;;;;;;10.57;2.17;;;;;;;18.92;100.00;98146.56;4997328;28;20068;-96
2022/08/02 01:35:01;;;;;;;9.02;1.85;;;;;;;18.82;100.00;98119.72;5001343;28;20049;-96
2022/08/02 01:37:49;;;;;;;7.32;1.95;;;;;;;18.74;100.00;98129.84;4999760;28;20049;-95
2022/08/02 01:40:27;;;;;;;9.13;2.00;;;;;;;18.80;100.00;98121.59;4999332;28;20045;-94
2022/08/02 01:42:53;;;;;;;6.55;1.73;;;;;;;18.79;100.00;98114.63;4987758;28;20048;-95
2022/08/02 01:45:24;;;;;;;13.55;2.30;;;;;;;18.71;100.00;98104.44;5001918;28;20044;-96
2022/08/02 01:47:51;;;;;;;6.97;1.70;;;;;;;18.59;100.00;98123.56;4985296;28;20111;-95
2022/08/02 01:50:20;;;;;;;7.25;1.92;;;;;;;18.68;100.00;98112.53;4985766;28;20117;-95
2022/08/02 01:52:52;;;;;;;7.13;1.67;;;;;;;18.82;100.00;98097.75;5001919;28;20068;-95
2022/08/02 01:55:28;;;;;;;8.30;1.80;;;;;;;18.96;100.00;98102.34;5000088;28;20165;-94
2022/08/02 01:57:57;;;;;;;9.05;2.00;;;;;;;18.85;100.00;98090.50;5001434;28;20049;-96
2022/08/02 02:00:26;;;;;;;6.78;1.67;;;;;;;18.57;100.00;98085.84;5000762;28;20056;-96
2022/08/02 02:02:56;;;;;;;8.25;1.90;;;;;;;18.59;100.00;98098.03;4999654;28;20100;-94
2022/08/02 02:05:25;;;;;;;6.28;1.80;;;;;;;18.45;100.00;98089.13;5055518;28;20085;-95
2022/08/02 02:07:56;;;;;;;8.50;1.98;;;;;;;18.31;100.00;98098.59;5096962;28;20031;-96
2022/08/02 02:10:28;;;;;;;6.93;2.00;;;;;;;18.84;100.00;98086.16;5098101;28;20032;-94
2022/08/02 02:12:55;;;;;;;8.52;2.08;;;;;;;18.76;100.00;98091.84;5073714;28;20843;-95
2022/08/02 02:15:22;;;;;;;7.57;2.00;;;;;;;18.83;100.00;98076.53;5078842;28;20053;-95
2022/08/02 02:17:50;;;;;;;10.85;2.45;;;;;;;19.12;100.00;98078.56;5081601;28;20024;-96
2022/08/02 02:20:18;;;;;;;6.70;1.90;;;;;;;19.44;100.00;98080.28;5095570;28;20119;-95
2022/08/02 02:22:45;;;;;;;9.60;2.15;;;;;;;19.45;100.00;98079.31;5076121;28;20031;-95
2022/08/02 02:25:13;;;;;;;7.28;2.42;;;;;;;19.04;100.00;98060.47;5076655;28;20026;-94
2022/08/02 02:27:47;;;;;;;10.10;2.05;;;;;;;19.13;100.00;98075.00;5098505;28;20697;-94
2022/08/02 02:30:13;;;;;;;9.35;2.30;;;;;;;18.90;100.00;98058.56;5082729;28;20028;-95
2022/08/02 02:32:41;;;;;;;8.48;2.15;;;;;;;19.26;100.00;98057.50;5076373;28;20134;-95
2022/08/02 02:35:09;;;;;;;6.80;2.35;;;;;;;19.10;100.00;98057.50;5077976;28;20394;-96
2022/08/02 02:37:37;;;;;;;10.27;2.42;;;;;;;19.49;100.00;98052.72;5070886;28;20027;-96
2022/08/02 02:40:03;;;;;;;8.30;2.30;;;;;;;19.29;100.00;98052.06;5080582;28;20046;-95
2022/08/02 02:42:31;;;;;;;11.52;2.50;;;;;;;19.35;100.00;98042.91;5093855;28;20029;-95
2022/08/02 02:44:58;;;;;;;7.32;2.20;;;;;;;19.39;100.00;98034.72;5072819;28;20046;-94
2022/08/02 02:47:28;;;;;;;9.13;2.38;;;;;;;19.32;100.00;98029.84;5096466;28;20036;-94
2022/08/02 02:49:56;;;;;;;9.05;2.50;;;;;;;19.97;100.00;98029.66;5078080;28;20059;-94
2022/08/02 02:52:23;;;;;;;8.70;2.97;;;;;;;20.10;100.00;98012.13;5080164;28;20097;-96
2022/08/02 02:54:50;;;;;;;8.50;2.35;;;;;;;19.94;100.00;98006.03;5089077;28;20574;-95
2022/08/02 02:57:16;;;;;;;9.85;2.78;;;;;;;19.54;100.00;98025.06;5098214;28;20560;-94
2022/08/02 02:59:42;;;;;;;7.72;2.10;;;;;;;19.53;100.00;98025.16;5092691;28;20035;-95
2022/08/02 03:02:09;;;;;;;7.55;2.53;;;;;;;19.57;100.00;98029.34;5094948;28;20046;-95
2022/08/02 03:04:37;;;;;;;7.88;2.30;;;;;;;20.10;100.00;98020.06;5095038;28;20047;-95
2022/08/02 03:07:02;;;;;;;8.10;2.45;;;;;;;19.92;100.00;97992.88;5097901;28;20024;-95
2022/08/02 03:09:28;;;;;;;12.05;2.47;;;;;;;20.00;100.00;97988.94;5096677;28;20031;-95
2022/08/02 03:11:55;;;;;;;9.50;2.45;;;;;;;20.01;100.00;97983.53;5096072;28;20036;-95
2022/08/02 03:14:20;;;;;;;6.70;1.90;;;;;;;20.22;100.00;97977.91;5113235;28;20024;-95
2022/08/02 03:16:49;;;;;;;6.85;2.22;;;;;;;20.01;100.00;97972.94;5097968;28;20092;-96
2022/08/02 03:19:26;;;;;;;7.25;1.85;;;;;;;20.31;100.00;97985.28;5090843;28;20043;-95
2022/08/02 03:21:52;;;;;;;8.32;2.05;;;;;;;20.35;100.00;97959.44;5112931;28;20038;-96
2022/08/02 03:24:17;;;;;;;7.97;1.90;;;;;;;20.55;100.00;97961.72;5093337;28;20012;-95
2022/08/02 03:26:43;;;;;;;7.32;1.90;;;;;;;20.23;100.00;97956.63;5094433;28;20059;-94
2022/08/02 03:29:09;;;;;;;6.43;2.10;;;;;;;19.76;100.00;97974.41;5093969;28;20830;-96
2022/08/02 03:31:35;;;;;;;6.28;2.00;;;;;;;19.58;100.00;97991.34;5096152;28;20429;-95
2022/08/02 03:34:02;;;;;;;7.18;2.33;;;;;;;19.91;100.00;97993.00;5092254;28;20941;-96
2022/08/02 03:36:31;;;;;;;7.70;2.47;;;;;;;19.92;100.00;97971.72;5091855;28;20036;-94
2022/08/02 03:38:59;;;;;;;10.48;2.65;;;;;;;20.11;100.00;97968.81;5090072;28;20054;-95
2022/08/02 03:41:24;;;;;;;7.82;2.33;;;;;;;19.99;100.00;97964.28;5097662;28;20092;-96
2022/08/02 03:43:51;;;;;;;11.30;2.05;;;;;;;20.04;100.00;97953.41;5098082;28;20036;-96
2022/08/02 03:46:21;;;;;;;7.82;1.83;;;;;;;19.94;100.00;97950.44;5098391;28;20138;-95
2022/08/02 03:48:48;;;;;;;7.07;2.28;;;;;;;19.53;100.00;97948.47;5097607;28;20107;-95
2022/08/02 03:51:14;;;;;;;7.25;1.85;;;;;;;18.00;100.00;97989.34;5099464;28;20023;-96
2022/08/02 03:53:40;;;;;;;7.05;2.00;;;;;;;17.94;100.00;98016.06;5097416;28;20045;-96
2022/08/02 03:56:06;;;;;;;7.45;2.13;;;;;;;17.93;100.00;98037.25;5081287;28;20049;-95
2022/08/02 03:58:32;;;;;;;6.93;1.77;;;;;;;18.04;100.00;98070.03;5099471;28;20031;-95
2022/08/02 04:00:58;;;;;;;5.60;1.60;;;;;;;19.95;100.00;98085.31;5079045;28;20028;-94
2022/08/02 04:03:25;;;;;;;9.50;2.03;;;;;;;19.83;100.00;98029.63;5077477;28;20035;-96
2022/08/02 04:05:51;;;;;;;6.20;1.90;;;;;;;19.68;100.00;98007.53;5096318;28;20036;-96
2022/08/02 04:08:16;;;;;;;7.32;1.85;;;;;;;20.01;100.00;97991.47;5097864;28;20038;-96
2022/08/02 04:13:29;;;;;;;6.72;1.40;;;;;;;20.05;100.00;97974.47;5096752;28;20043;-96
2022/08/02 04:15:58;;;;;;;6.90;1.83;;;;;;;19.92;100.00;97973.53;5096438;28;20040;-96
2022/08/02 04:18:29;;;;;;;5.15;1.67;;;;;;;20.08;100.00;97945.19;5094942;28;20032;-95
2022/08/02 04:21:01;;;;;;;5.38;1.40;;;;;;;19.83;100.00;97952.91;5079795;28;20110;-95
2022/08/02 04:23:30;;;;;;;9.32;1.60;;;;;;;20.34;100.00;97939.25;5099699;28;20035;-95
2022/08/02 04:25:56;;;;;;;8.63;1.77;;;;;;;20.23;100.00;97940.72;5076275;28;20101;-96
2022/08/02 04:28:23;;;;;;;6.25;1.50;;;;;;;20.28;100.00;97940.47;5101312;27;20789;-96
2022/08/02 04:30:50;;;;;;;5.78;1.15;;;;;;;20.28;100.00;97927.22;5081186;28;20040;-95
2022/08/02 04:33:16;;;;;;;7.32;1.55;;;;;;;20.59;100.00;97941.19;5078553;28;20036;-94
2022/08/02 04:35:43;;;;;;;4.57;1.33;;;;;;;20.48;100.00;97933.09;5097492;28;20030;-95
2022/08/02 04:38:09;;;;;;;6.63;1.30;;;;;;;20.37;100.00;97926.63;5080417;28;20035;-96
2022/08/02 04:40:35;;;;;;;6.03;1.23;;;;;;;20.35;100.00;97927.69;5079825;28;20748;-95
2022/08/02 04:43:00;;;;;;;6.15;1.23;;;;;;;20.41;100.00;97927.31;5081884;28;20462;-96
2022/08/02 04:45:28;;;;;;;4.35;1.00;;;;;;;20.40;100.00;97929.13;5099682;28;20032;-95
2022/08/02 04:47:53;;;;;;;4.18;1.20;;;;;;;20.54;100.00;97933.56;5080728;28;20042;-96
2022/08/02 04:50:22;;;;;;;4.32;1.27;;;;;;;20.49;100.00;97934.75;5097855;28;20406;-95
2022/08/02 04:52:47;;;;;;;6.65;1.40;;;;;;;20.63;100.00;97926.81;5095125;28;20531;-95
2022/08/02 04:55:13;;;;;;;5.65;1.30;;;;;;;20.46;100.00;97930.53;5090600;28;20048;-95
2022/08/02 04:57:53;;;;;;;5.78;1.58;;;;;;;20.60;100.00;97933.16;5098216;28;20032;-95
2022/08/02 05:00:20;;;;;;;7.55;1.60;;;;;;;20.77;100.00;97934.75;5093848;28;20055;-95
2022/08/02 05:02:46;;;;;;;4.22;1.13;;;;;;;20.53;100.00;97938.91;5096316;28;20505;-94
2022/08/02 05:05:12;;;;;;;5.70;1.40;;;;;;;20.48;100.00;97955.09;5100156;28;20022;-95
2022/08/02 05:07:37;;;;;;;6.43;1.40;;;;;;;20.53;100.00;97970.69;5097025;28;20127;-95
2022/08/02 05:10:05;;;;;;;4.07;1.10;;;;;;;20.55;100.00;97958.22;5098847;28;20469;-95
2022/08/02 05:12:30;;;;;;;6.07;1.10;;;;;;;20.17;100.00;97977.34;5103753;28;20129;-96
2022/08/02 05:14:57;;;;;;;3.75;1.10;;;;;;;20.67;100.00;97983.09;5097263;27;20057;-96
2022/08/02 05:17:22;;;;;;;4.35;1.00;;;;;;;20.70;100.00;97970.53;5098119;28;20487;-95
2022/08/02 05:19:49;;;;;;;7.80;1.40;;;;;;;20.16;100.00;98004.75;5103686;28;20039;-95
2022/08/02 05:22:15;;;;;;;5.75;1.33;;;;;;;19.98;100.00;98052.53;5096654;22;20056;-95
2022/08/02 05:24:44;;;;;;;6.07;1.00;;;;;;;20.39;100.00;98250.50;5054480;28;20029;-96
2022/08/02 05:27:09;;;;;;;8.10;1.60;;;;;;;41.91;100.00;98143.47;5052318;28;20048;-96
2022/08/02 05:29:34;;;;;;;9.95;1.23;;;;;;;60.51;100.00;97806.19;5052617;28;20021;-96
2022/08/02 05:32:00;;;;;;;5.78;1.20;;;;;;;31.63;100.00;98004.50;5046667;28;20064;-95
2022/08/02 05:34:25;;;;;;;5.93;1.27;;;;;;;26.39;100.00;97921.06;5045431;28;20138;-95
2022/08/02 05:36:51;;;;;;;5.78;1.10;;;;;;;40.31;100.00;97927.34;5047040;28;20048;-93
2022/08/02 05:39:17;;;;;;;5.20;1.13;;;;;;;20.78;100.00;98115.81;5049141;28;20032;-96
2022/08/02 05:41:43;;;;;;;4.28;1.00;;;;;;;21.23;100.00;98153.66;5047835;28;20043;-96
2022/08/02 05:44:08;;;;;;;4.65;1.05;;;;;;;20.77;100.00;98143.25;5055382;28;20021;-96
2022/08/02 05:46:33;;;;;;;4.65;1.05;;;;;;;20.80;100.00;98116.56;5053344;28;20032;-96
2022/08/02 05:49:00;;;;;;;15.73;1.90;;;;;;;20.61;100.00;98116.78;5049937;28;20040;-94
2022/08/02 05:51:37;;;;;;;3.17;0.82;;;;;;;20.52;100.00;98126.16;5053638;28;20037;-96
2022/08/02 05:54:17;;;;;;;3.38;0.80;;;;;;;20.58;100.00;98127.56;5049687;28;20105;-96
2022/08/02 05:57:10;;;;;;;5.13;1.00;;;;;;;20.25;100.00;98128.63;5037956;28;20033;-96
2022/08/02 05:59:41;;;;;;;4.30;1.00;;;;;;;20.56;100.00;98150.66;5061074;28;20033;-95
2022/08/02 06:02:23;;;;;;;5.43;0.80;;;;;;;20.55;100.00;98155.09;5061708;28;20060;-96
2022/08/02 06:05:09;;;;;;;4.82;1.00;;;;;;;20.68;100.00;98154.41;5056608;28;20037;-96
2022/08/02 06:08:02;;;;;;;3.53;0.90;;;;;;;20.72;100.00;98148.81;5059436;28;20065;-96
2022/08/02 06:10:30;;;;;;;4.32;1.00;;;;;;;20.56;100.00;98118.88;5062608;28;20155;-96
2022/08/02 06:13:30;;;;;;;4.60;0.90;;;;;;;20.18;100.00;98021.38;5130866;22;20051;-96
2022/08/02 06:16:04;;;;;;;4.18;0.80;;;;;;;20.28;100.00;97824.81;4994224;28;20038;-96
2022/08/02 06:18:30;;;;;;;6.07;1.25;;;;;;;20.35;100.00;97796.16;4973566;28;20419;-93
2022/08/02 06:20:59;;;;;;;3.13;1.00;;;;;;;20.92;100.00;97781.00;4967594;28;20096;-96
2022/08/02 06:23:25;;;;;;;5.25;1.20;;;;;;;20.40;100.00;97774.66;4975855;28;20060;-95
2022/08/02 06:25:52;;;;;;;3.20;0.70;;;;;;;20.89;100.00;97787.34;4970076;28;20837;-95
2022/08/02 06:28:30;;;;;;;3.35;0.90;;;;;;;21.22;100.00;97783.34;4992172;28;20030;-96
2022/08/02 06:30:56;;;;;;;6.22;1.00;;;;;;;20.00;100.00;97778.06;4979725;28;20045;-96
2022/08/02 06:33:22;;;;;;;4.25;1.00;;;;;;;20.85;100.00;97769.97;4985209;28;20049;-95
2022/08/02 06:36:02;;;;;;;3.78;1.00;;;;;;;20.00;100.00;97922.75;4986556;28;20046;-96
2022/08/02 06:38:37;;;;;;;5.65;1.13;;;;;;;20.07;100.00;97828.81;4989051;28;20050;-96
2022/08/02 06:41:08;;;;;;;5.22;1.10;;;;;;;20.68;100.00;97813.47;4982169;28;20391;-94
2022/08/02 06:44:06;;;;;;;5.10;1.10;;;;;;;20.71;100.00;97785.91;4988204;28;20034;-96
2022/08/02 06:46:33;;;;;;;3.85;1.00;;;;;;;20.40;100.00;97794.06;4969555;28;20058;-96
2022/08/02 06:48:59;;;;;;;4.95;1.08;;;;;;;20.39;100.00;97902.69;4971639;28;20030;-96
2022/08/02 06:51:25;;;;;;;4.93;1.25;;;;;;;20.42;100.00;97815.16;5000858;28;20047;-96
2022/08/02 06:53:50;;;;;;;5.43;1.20;;;;;;;20.08;100.00;97809.34;5041472;28;20029;-96
2022/08/02 06:56:16;;;;;;;6.80;1.77;;;;;;;20.15;100.00;97820.38;5061209;28;20029;-94
2022/08/02 06:58:42;;;;;;;7.70;1.45;;;;;;;20.07;100.00;97802.34;5038822;28;20079;-96
2022/08/02 07:01:11;;;;;;;4.40;1.08;;;;;;;20.61;100.00;97785.63;5045641;28;20048;-96
2022/08/02 07:03:38;;;;;;;5.28;1.20;;;;;;;20.55;100.00;97791.34;5042369;28;20043;-96
2022/08/02 07:06:07;;;;;;;5.72;1.40;;;;;;;20.64;100.00;97788.94;5044015;28;20033;-96
2022/08/02 07:08:37;;;;;;;7.05;1.52;;;;;;;20.26;100.00;97802.91;5054198;28;20469;-96
2022/08/02 07:11:03;;;;;;;6.50;1.38;;;;;;;20.76;100.00;97811.16;5035828;28;20024;-96
2022/08/02 07:13:30;;;;;;;8.02;1.65;;;;;;;20.60;100.00;97813.94;5035830;28;20064;-96
2022/08/02 07:15:56;;;;;;;8.48;1.83;;;;;;;20.54;100.00;97810.84;5043506;28;20032;-96
2022/08/02 07:18:22;;;;;;;6.75;1.30;;;;;;;20.44;100.00;97811.41;5047230;28;20102;-96
2022/08/02 07:20:48;;;;;;;6.95;1.23;;;;;;;20.54;100.00;97858.50;5046221;28;20024;-96
2022/08/02 07:23:14;;;;;;;7.70;1.58;;;;;;;20.01;100.00;97835.34;5047823;28;20381;-96
2022/08/02 07:25:40;;;;;;;7.00;1.42;;;;;;;19.96;100.00;97829.50;5041820;28;20032;-96
2022/08/02 07:28:08;;;;;;;4.88;1.30;;;;;;;19.98;100.00;97827.59;5045217;28;20116;-96
2022/08/02 07:30:35;;;;;;;7.50;1.88;;;;;;;19.48;100.00;97831.53;5044447;28;20040;-96
2022/08/02 07:33:04;;;;;;;9.05;1.40;;;;;;;19.67;100.00;97839.19;5027607;28;20667;-96
2022/08/02 07:35:29;;;;;;;7.25;2.03;;;;;;;19.42;100.00;97864.47;5061714;28;20103;-96
2022/08/02 07:37:55;;;;;;;5.85;1.55;;;;;;;19.22;100.00;97979.28;5047239;28;20444;-96
2022/08/02 07:40:22;;;;;;;5.45;1.50;;;;;;;19.88;100.00;98076.03;5042417;28;20043;-96
2022/08/02 07:42:50;;;;;;;5.68;1.40;;;;;;;20.09;100.00;98096.91;5062242;28;20391;-95
2022/08/02 07:45:16;;;;;;;5.97;1.67;;;;;;;20.01;100.00;98115.03;5043877;28;20034;-96
2022/08/02 07:47:43;;;;;;;7.72;1.75;;;;;;;19.76;100.00;98127.00;5044808;28;20249;-96
2022/08/02 07:50:10;;;;;;;7.85;1.63;;;;;;;20.46;100.00;98106.19;5046794;28;20111;-94
2022/08/02 07:52:36;;;;;;;6.20;1.80;;;;;;;19.64;100.00;98120.63;5055079;28;20021;-93
2022/08/02 07:55:05;;;;;;;6.75;1.40;;;;;;;20.24;100.00;98111.06;5061209;28;20037;-94
2022/08/02 07:57:31;;;;;;;5.90;1.20;;;;;;;24.33;100.00;98058.88;5061341;28;20037;-93
2022/08/02 07:59:57;;;;;;;5.18;1.23;;;;;;;21.54;100.00;98104.00;5040595;28;20029;-94
2022/08/02 08:02:25;;;;;;;5.18;1.15;;;;;;;21.58;100.00;98083.44;5052549;28;20040;-95
2022/08/02 08:04:52;;;;;;;5.05;1.10;;;;;;;21.34;100.00;98092.00;5052674;28;20020;-96
2022/08/02 08:07:17;;;;;;;4.28;1.10;;;;;;;21.31;100.00;98082.44;4980978;28;20061;-94
2022/08/02 08:09:44;;;;;;;5.78;0.93;;;;;;;20.47;100.00;98107.03;5007445;28;20033;-94
2022/08/02 08:12:11;;;;;;;4.38;1.17;;;;;;;20.82;100.00;98142.97;4985682;28;20022;-96
2022/08/02 08:14:38;;;;;;;5.03;1.13;;;;;;;20.98;100.00;98120.72;4988382;28;20124;-95
2022/08/02 08:17:07;;;;;;;3.08;0.70;;;;;;;20.96;100.00;98127.09;5006961;28;20065;-95
2022/08/02 08:19:33;;;;;;;2.88;0.60;;;;;;;20.88;100.00;98116.94;4990015;28;20128;-95
2022/08/02 08:21:59;;;;;;;1.65;0.50;;;;;;;20.86;100.00;98096.78;5010086;28;20116;-94
2022/08/02 08:24:28;;;;;;;3.08;0.80;;;;;;;20.93;100.00;98088.38;4992077;28;20038;-96
2022/08/02 08:26:54;;;;;;;2.65;0.80;;;;;;;20.72;100.00;98074.63;5010550;28;20030;-96
2022/08/02 08:29:20;;;;;;;2.35;0.60;;;;;;;21.10;100.00;98054.66;4992676;28;20095;-96
2022/08/02 08:31:46;;;;;;;2.65;0.57;;;;;;;21.42;100.00;98054.34;4997069;28;20116;-96
2022/08/02 08:34:12;;;;;;;2.33;0.50;;;;;;;21.26;100.00;98030.63;4988950;28;20056;-96
2022/08/02 08:36:38;;;;;;;2.45;0.50;;;;;;;21.01;100.00;98000.38;4990209;28;20089;-96
2022/08/02 08:39:04;;;;;;;2.05;0.60;;;;;;;21.31;100.00;97935.72;4998042;28;20021;-94
2022/08/02 08:41:34;;;;;;;3.78;0.55;;;;;;;21.25;100.00;97869.81;5006996;28;20034;-96
2022/08/02 08:44:00;;;;;;;1.55;0.52;;;;;;;21.35;100.00;97832.91;4991068;28;20021;-95
2022/08/02 08:46:29;;;;;;;2.00;0.50;;;;;;;20.76;100.00;97832.34;4989550;28;20034;-96
2022/08/02 08:49:05;;;;;;;3.17;0.60;;;;;;;20.79;100.00;97824.22;5000443;28;20049;-94
2022/08/02 08:51:36;;;;;;;2.95;0.70;;;;;;;21.11;100.00;97849.53;4986306;28;20046;-96
2022/08/02 08:54:03;;;;;;;3.85;0.82;;;;;;;21.60;100.00;97842.72;4995169;28;20029;-95
2022/08/02 08:56:34;;;;;;;5.35;1.00;;;;;;;21.00;100.00;97814.94;4990306;28;20041;-96
2022/08/02 08:59:03;;;;;;;5.38;1.10;;;;;;;21.67;100.00;97822.78;4989435;28;20124;-94
2022/08/02 09:01:54;;;;;;;5.53;1.08;;;;;;;21.16;100.00;97789.09;4993178;28;20034;-94
2022/08/02 09:04:20;;;;;;;6.25;1.25;;;;;;;20.91;100.00;97788.09;4990638;28;20051;-95
2022/08/02 09:06:46;;;;;;;5.55;1.20;;;;;;;21.21;100.00;97792.28;5002042;28;20176;-95
2022/08/02 09:09:12;;;;;;;5.47;1.30;;;;;;;21.45;100.00;97787.09;4990508;28;20418;-96
2022/08/02 09:11:38;;;;;;;7.28;1.40;;;;;;;21.07;100.00;97798.53;4995620;28;20087;-96
2022/08/02 09:14:08;;;;;;;4.60;1.25;;;;;;;21.30;100.00;97782.84;4999338;28;20042;-96
2022/08/02 09:16:37;;;;;;;4.45;1.10;;;;;;;21.19;100.00;97785.38;4991778;28;20464;-96
2022/08/02 09:19:39;;;;;;;6.80;1.60;;;;;;;21.17;100.00;97779.31;4984718;28;20030;-96
2022/08/02 09:22:08;;;;;;;8.00;1.60;;;;;;;21.28;100.00;97792.69;4951874;28;20623;-95
2022/08/02 09:24:53;;;;;;;6.57;1.80;;;;;;;21.38;100.00;97775.22;4962941;28;20510;-95
2022/08/02 09:27:24;;;;;;;6.95;1.90;;;;;;;22.07;100.00;97771.34;4963566;28;20130;-96
2022/08/02 09:29:55;;;;;;;7.82;2.15;;;;;;;22.23;100.00;97771.09;4964776;28;20055;-96
2022/08/02 09:32:24;;;;;;;9.23;2.10;;;;;;;22.03;100.00;97776.00;4969640;28;20034;-95
2022/08/02 09:34:52;;;;;;;10.15;2.15;;;;;;;21.70;100.00;97761.53;4951235;28;20027;-96
2022/08/02 09:37:25;;;;;;;8.93;2.08;;;;;;;21.30;100.00;97759.81;4958516;28;20077;-95
2022/08/02 09:39:53;;;;;;;6.43;1.92;;;;;;;21.30;100.00;97748.38;4945923;28;20031;-96
2022/08/02 09:42:22;;;;;;;5.88;1.67;;;;;;;21.61;100.00;97756.88;4974868;28;20078;-95
2022/08/02 09:45:04;;;;;;;6.90;1.63;;;;;;;21.24;100.00;97759.38;4968628;28;20506;-94
2022/08/02 09:47:34;;;;;;;7.30;1.98;;;;;;;21.62;100.00;97759.41;4948469;28;20061;-95
2022/08/02 09:50:02;;;;;;;9.10;2.20;;;;;;;21.50;100.00;97749.63;4957514;28;20034;-95
2022/08/02 09:52:29;;;;;;;6.75;1.92;;;;;;;21.60;100.00;97763.13;4960881;28;20130;-96
2022/08/02 09:55:05;;;;;;;7.88;2.00;;;;;;;22.02;100.00;97789.38;4964634;28;20038;-96
2022/08/02 09:57:37;;;;;;;7.78;1.90;;;;;;;21.26;100.00;97754.84;4995616;28;20896;-95
2022/08/02 10:00:08;;;;;;;7.80;2.05;;;;;;;21.65;100.00;97756.53;4989433;28;20034;-95
2022/08/02 10:05:17;;;;;;;7.45;2.00;;;;;;;21.44;100.00;97765.97;4337050;26;20540;-95
2022/08/02 10:07:43;;;;;;;6.80;1.88;;;;;;;21.24;100.00;97780.59;4982803;28;20490;-95
2022/08/02 10:10:09;;;;;;;7.13;2.00;;;;;;;21.35;100.00;97786.03;4978385;28;20038;-94
2022/08/02 10:12:36;;;;;;;5.53;1.52;;;;;;;21.42;100.00;97778.50;4975966;28;20113;-96
2022/08/02 10:15:02;;;;;;;7.45;1.92;;;;;;;21.41;100.00;97775.00;4981088;28;20023;-95
2022/08/02 10:17:28;;;;;;;7.30;1.60;;;;;;;21.12;100.00;97775.19;4983054;28;20036;-96
2022/08/02 10:19:55;;;;;;;5.13;1.40;;;;;;;21.73;100.00;97766.63;5005244;28;20025;-96
2022/08/02 10:22:21;;;;;;;5.82;1.50;;;;;;;21.71;100.00;97755.28;4986806;28;20034;-95
2022/08/02 10:24:50;;;;;;;6.80;1.70;;;;;;;21.58;100.00;97759.75;5004354;28;20030;-96
2022/08/02 10:27:18;;;;;;;4.75;1.30;;;;;;;21.70;100.00;97742.97;4980838;28;20030;-96
2022/08/02 10:29:47;;;;;;;5.55;1.52;;;;;;;21.67;100.00;97747.63;5000827;28;20488;-95
2022/08/02 10:32:20;;;;;;;5.97;1.45;;;;;;;21.62;100.00;97761.22;4996669;28;20029;-95
2022/08/02 10:34:45;;;;;;;6.82;1.33;;;;;;;21.95;100.00;97763.28;4997217;28;20040;-96
2022/08/02 10:37:13;;;;;;;6.35;1.33;;;;;;;21.82;100.00;97765.97;4976675;28;20026;-95
2022/08/02 10:39:42;;;;;;;5.95;1.48;;;;;;;22.04;100.00;97761.78;4978954;28;20129;-94
2022/08/02 10:42:09;;;;;;;6.55;1.40;;;;;;;22.09;100.00;97780.88;4980312;28;20133;-96
2022/08/02 10:44:36;;;;;;;4.53;1.30;;;;;;;22.03;100.00;97759.22;4981866;28;20181;-95
2022/08/02 10:47:13;;;;;;;4.57;1.45;;;;;;;22.35;100.00;97753.44;4995489;28;20033;-95
2022/08/02 10:50:06;;;;;;;4.07;1.00;;;;;;;22.20;100.00;97740.28;4975990;28;20041;-95
2022/08/02 10:52:32;;;;;;;4.03;1.10;;;;;;;22.61;100.00;97732.91;4979021;28;20537;-95
2022/08/02 10:54:58;;;;;;;3.78;1.10;;;;;;;22.14;100.00;97746.03;4991520;28;20034;-96
2022/08/02 10:57:25;;;;;;;4.40;1.08;;;;;;;21.79;100.00;97757.38;4992889;28;20115;-95
2022/08/02 10:59:59;;;;;;;3.80;0.90;;;;;;;22.14;100.00;97760.16;4990287;28;20037;-95
2022/08/02 11:02:34;;;;;;;3.88;0.85;;;;;;;21.47;100.00;97752.50;4975968;28;20064;-95
2022/08/02 11:05:01;;;;;;;3.00;0.80;;;;;;;;;;4979129;28;20049;-96
2022/08/02 11:08:16;;;;;;;3.67;0.95;;;;;;;21.59;100.00;97762.28;4975819;28;20362;-94
2022/08/02 11:10:41;;;;;;;3.03;0.75;;;;;;;21.99;100.00;97770.09;4910949;29;20050;-96
2022/08/02 11:13:11;;;;;;;3.65;0.60;;;;;;;21.98;100.00;97736.53;4914568;29;20048;-96
2022/08/02 11:15:57;;;;;;;3.20;0.82;;;;;;;21.99;100.00;97730.25;4913169;29;20496;-94
2022/08/02 11:18:43;;;;;;;1.00;0.43;;;;;;;23.25;100.00;97726.31;4919095;29;20394;-96
2022/08/02 11:21:25;;;;;;;1.23;0.47;;;;;;;22.41;100.00;97729.91;4913687;29;20040;-95
2022/08/02 11:23:51;;;;;;;2.97;0.70;;;;;;;22.31;100.00;97723.53;4895360;29;20027;-95
2022/08/02 11:26:46;;;;;;;2.38;0.50;;;;;;;22.30;100.00;97711.25;4911271;29;20158;-94
2022/08/02 11:29:11;;;;;;;1.13;0.40;;;;;;;22.28;100.00;97703.38;4900459;29;20083;-94
2022/08/02 11:31:42;;;;;;;1.88;0.50;;;;;;;22.49;100.00;97706.28;4914089;29;21312;-93
2022/08/02 11:34:09;;;;;;;2.58;0.70;;;;;;;22.70;100.00;97695.00;4917559;29;20115;-94
2022/08/02 11:36:49;;;;;;;2.25;0.65;;;;;;;23.13;100.00;97693.53;4915519;29;20098;-93
2022/08/02 11:39:17;;;;;;;2.72;0.88;;;;;;;23.61;100.00;97698.63;4913495;29;20150;-93
2022/08/02 11:41:56;;;;;;;3.17;0.85;;;;;;;23.79;100.00;97704.31;4917293;29;20040;-93